Time;durP1;ratioP1;P1;durP2;ratioP2;P2;SDS_P1;SDS_P2;PMS_P1;PMS_P2;Temp;Humidity;BMP_temperature;BMP_pressure;BME280_temperature;BME280_humidity;BME280_pressure;Samples;Min_cycle;Max_cycle;Signal;HPM_P1;HPM_P2
2021/08/08 00:00:38;;;;;;;1.37;1.23;;;;;;;;;;5094019;28;20248;-81
2021/08/08 00:03:05;;;;;;;0.93;0.93;;;;;;;;;;5091624;28;20229;-81
2021/08/08 00:05:31;;;;;;;2.27;1.00;;;;;;;;;;5126677;27;20240;-81
2021/08/08 00:07:58;;;;;;;1.30;1.10;;;;;;;;;;5092000;28;20295;-81
2021/08/08 00:10:26;;;;;;;1.00;1.00;;;;;;;;;;5094037;28;20234;-81
2021/08/08 00:12:53;;;;;;;1.07;0.90;;;;;;;;;;5092228;28;20275;-81
2021/08/08 00:15:19;;;;;;;1.23;0.90;;;;;;;;;;5093333;28;20233;-81
2021/08/08 00:17:46;;;;;;;0.80;0.80;;;;;;;;;;5093601;28;20209;-81
2021/08/08 00:20:13;;;;;;;1.00;0.80;;;;;;;;;;5092053;28;20292;-81
2021/08/08 00:22:40;;;;;;;0.80;0.80;;;;;;;;;;5093342;28;20645;-81
2021/08/08 00:25:08;;;;;;;0.97;0.90;;;;;;;;;;5093042;28;20206;-81
2021/08/08 00:27:37;;;;;;;2.37;0.80;;;;;;;;;;5091915;28;20240;-81
2021/08/08 00:30:04;;;;;;;1.03;0.93;;;;;;;;;;5093542;28;20210;-81
2021/08/08 00:32:30;;;;;;;0.80;0.80;;;;;;;;;;5091811;28;20233;-81
2021/08/08 00:34:57;;;;;;;1.00;0.90;;;;;;;;;;5091988;28;20194;-81
2021/08/08 00:37:24;;;;;;;0.83;0.83;;;;;;;;;;5091928;28;20267;-81
2021/08/08 00:39:50;;;;;;;1.07;0.90;;;;;;;;;;5092931;28;20545;-81
2021/08/08 00:42:17;;;;;;;0.90;0.90;;;;;;;;;;5092760;28;20670;-81
2021/08/08 00:44:45;;;;;;;1.97;0.90;;;;;;;;;;5093095;28;20210;-81
2021/08/08 00:47:12;;;;;;;2.37;0.73;;;;;;;;;;5092655;28;20244;-81
2021/08/08 00:49:39;;;;;;;0.73;0.67;;;;;;;;;;5091482;28;20226;-82
2021/08/08 00:52:07;;;;;;;1.33;0.53;;;;;;;;;;5092727;28;20202;-81
2021/08/08 00:54:34;;;;;;;1.60;0.87;;;;;;;;;;5092703;28;20233;-81
2021/08/08 00:57:00;;;;;;;0.90;0.90;;;;;;;;;;5093017;28;20600;-82
2021/08/08 00:59:27;;;;;;;1.77;0.87;;;;;;;;;;5092741;28;20237;-82
2021/08/08 01:01:55;;;;;;;1.07;0.80;;;;;;;;;;5092597;28;20252;-80
2021/08/08 01:04:27;;;;;;;0.63;0.60;;;;;;;;;;5092568;28;20467;-80
2021/08/08 01:06:57;;;;;;;0.70;0.70;;;;;;;;;;5092689;28;20208;-81
2021/08/08 01:09:25;;;;;;;1.53;1.00;;;;;;;;;;5092664;28;20232;-82
2021/08/08 01:11:53;;;;;;;2.07;0.53;;;;;;;;;;5090967;28;20205;-81
2021/08/08 01:14:20;;;;;;;0.80;0.80;;;;;;;;;;5091143;28;20665;-81
2021/08/08 01:16:48;;;;;;;0.93;0.77;;;;;;;;;;5090621;28;20729;-82
2021/08/08 01:19:17;;;;;;;1.27;0.70;;;;;;;;;;5092360;28;20210;-81
2021/08/08 01:21:46;;;;;;;0.90;0.70;;;;;;;;;;5091143;28;20646;-81
2021/08/08 01:24:14;;;;;;;0.80;0.70;;;;;;;;;;5090944;28;20734;-81
2021/08/08 01:26:42;;;;;;;0.70;0.70;;;;;;;;;;5092394;28;20245;-81
2021/08/08 01:29:09;;;;;;;2.90;0.77;;;;;;;;;;5092197;28;20909;-81
2021/08/08 01:31:35;;;;;;;1.23;0.90;;;;;;;;;;5092219;28;20202;-80
2021/08/08 01:34:02;;;;;;;1.03;0.80;;;;;;;;;;5090340;28;20205;-83
2021/08/08 01:36:29;;;;;;;1.20;0.63;;;;;;;;;;5090307;28;20209;-82
2021/08/08 01:38:59;;;;;;;1.87;0.57;;;;;;;;;;5090583;28;20250;-80
2021/08/08 01:41:29;;;;;;;1.23;0.83;;;;;;;;;;5090656;28;20240;-81
2021/08/08 01:43:56;;;;;;;1.97;0.87;;;;;;;;;;5090604;28;20198;-80
2021/08/08 01:46:25;;;;;;;1.23;0.90;;;;;;;;;;5092079;28;20206;-81
2021/08/08 01:48:53;;;;;;;1.43;0.90;;;;;;;;;;5090304;28;20249;-82
2021/08/08 01:51:20;;;;;;;1.03;0.80;;;;;;;;;;5091833;28;20263;-80
2021/08/08 01:53:47;;;;;;;7.70;0.73;;;;;;;;;;5091543;28;20240;-82
2021/08/08 01:56:14;;;;;;;1.20;0.80;;;;;;;;;;5091583;28;20253;-81
2021/08/08 01:58:42;;;;;;;1.00;0.90;;;;;;;;;;5091862;28;20234;-81
2021/08/08 02:01:09;;;;;;;0.80;0.80;;;;;;;;;;5089855;28;20727;-80
2021/08/08 02:03:36;;;;;;;0.70;0.70;;;;;;;;;;5091360;28;20260;-81
2021/08/08 02:06:03;;;;;;;1.40;0.77;;;;;;;;;;5090128;28;20209;-81
2021/08/08 02:08:29;;;;;;;2.27;0.90;;;;;;;;;;5090582;28;20248;-81
2021/08/08 02:10:56;;;;;;;1.33;0.90;;;;;;;;;;5090364;28;20202;-80
2021/08/08 02:13:23;;;;;;;1.47;1.33;;;;;;;;;;5089999;28;20662;-81
2021/08/08 02:15:51;;;;;;;2.47;0.90;;;;;;;;;;5090383;28;20247;-82
2021/08/08 02:18:17;;;;;;;1.90;0.90;;;;;;;;;;5091505;28;20241;-81
2021/08/08 02:20:44;;;;;;;2.20;1.10;;;;;;;;;;5091458;28;20244;-81
2021/08/08 02:23:11;;;;;;;0.90;0.90;;;;;;;;;;5090216;28;20236;-82
2021/08/08 02:25:38;;;;;;;1.17;1.00;;;;;;;;;;5091656;28;20608;-81
2021/08/08 02:28:06;;;;;;;2.13;0.67;;;;;;;;;;5090087;28;20334;-81
2021/08/08 02:30:33;;;;;;;0.83;0.83;;;;;;;;;;5091330;28;20197;-80
2021/08/08 02:33:01;;;;;;;0.90;0.70;;;;;;;;;;5090049;28;20275;-81
2021/08/08 02:35:28;;;;;;;1.37;0.93;;;;;;;;;;5090166;28;20250;-81
2021/08/08 02:37:55;;;;;;;1.63;1.00;;;;;;;;;;5091590;28;20206;-81
2021/08/08 02:40:21;;;;;;;1.17;0.90;;;;;;;;;;5089692;28;20661;-81
2021/08/08 02:42:48;;;;;;;1.00;1.00;;;;;;;;;;5089789;28;20296;-81
2021/08/08 02:45:15;;;;;;;0.90;0.90;;;;;;;;;;5092299;28;20193;-81
2021/08/08 02:47:41;;;;;;;1.77;0.73;;;;;;;;;;5095429;28;20245;-81
2021/08/08 02:50:11;;;;;;;1.17;0.70;;;;;;;;;;5093470;28;20249;-81
2021/08/08 02:52:41;;;;;;;1.63;0.90;;;;;;;;;;5093999;28;20243;-81
2021/08/08 02:55:08;;;;;;;1.43;0.93;;;;;;;;;;5093963;28;20661;-81
2021/08/08 02:57:35;;;;;;;0.77;0.70;;;;;;;;;;5093943;28;20726;-82
2021/08/08 03:00:02;;;;;;;0.83;0.60;;;;;;;;;;5093750;28;20553;-82
2021/08/08 03:02:28;;;;;;;2.00;0.73;;;;;;;;;;5093380;28;20259;-82
2021/08/08 03:04:55;;;;;;;4.03;0.93;;;;;;;;;;5093569;28;20202;-82
2021/08/08 03:07:23;;;;;;;0.80;0.80;;;;;;;;;;5095348;28;20233;-81
2021/08/08 03:09:50;;;;;;;1.50;0.90;;;;;;;;;;5093218;28;20260;-81
2021/08/08 03:12:17;;;;;;;1.00;0.90;;;;;;;;;;5095048;28;20567;-81
2021/08/08 03:14:43;;;;;;;1.50;0.70;;;;;;;;;;5093269;28;20197;-81
2021/08/08 03:17:10;;;;;;;3.70;0.90;;;;;;;;;;5094969;28;20575;-82
2021/08/08 03:19:36;;;;;;;1.23;1.13;;;;;;;;;;5094660;28;20236;-81
2021/08/08 03:22:04;;;;;;;3.17;0.90;;;;;;;;;;5092947;28;20253;-82
2021/08/08 03:24:32;;;;;;;3.30;1.00;;;;;;;;;;5094554;28;20206;-82
2021/08/08 03:26:59;;;;;;;1.17;0.80;;;;;;;;;;5094449;28;20237;-82
2021/08/08 03:29:26;;;;;;;0.83;0.83;;;;;;;;;;5094534;28;20229;-82
2021/08/08 03:31:53;;;;;;;4.13;1.10;;;;;;;;;;5093162;28;20247;-81
2021/08/08 03:34:19;;;;;;;1.70;0.87;;;;;;;;;;5094560;28;20245;-82
2021/08/08 03:36:46;;;;;;;1.17;0.67;;;;;;;;;;5093112;28;20658;-82
2021/08/08 03:39:13;;;;;;;2.57;1.17;;;;;;;;;;5094627;28;20234;-81
2021/08/08 03:41:41;;;;;;;1.60;1.00;;;;;;;;;;5093171;28;20194;-81
2021/08/08 03:44:07;;;;;;;1.13;1.00;;;;;;;;;;5094515;28;20237;-81
2021/08/08 03:46:34;;;;;;;2.07;1.10;;;;;;;;;;5092314;28;20228;-82
2021/08/08 03:49:01;;;;;;;0.90;0.90;;;;;;;;;;5092775;28;20214;-82
2021/08/08 03:51:27;;;;;;;1.00;0.90;;;;;;;;;;5092575;28;20277;-81
2021/08/08 03:53:54;;;;;;;2.73;1.00;;;;;;;;;;5092897;28;20210;-82
2021/08/08 03:56:21;;;;;;;4.07;1.00;;;;;;;;;;5092060;28;20198;-82
2021/08/08 03:58:49;;;;;;;1.17;0.83;;;;;;;;;;5092766;28;20228;-82
2021/08/08 04:01:15;;;;;;;1.60;0.87;;;;;;;;;;5092880;28;20202;-81
2021/08/08 04:03:42;;;;;;;2.37;1.00;;;;;;;;;;5092008;28;20705;-82
2021/08/08 04:06:09;;;;;;;2.13;1.00;;;;;;;;;;5094242;28;20602;-81
2021/08/08 04:08:35;;;;;;;2.53;0.77;;;;;;;;;;5092544;28;20216;-82
2021/08/08 04:11:02;;;;;;;1.47;1.00;;;;;;;;;;5092304;28;20268;-81
2021/08/08 04:13:29;;;;;;;0.93;0.93;;;;;;;;;;5092531;28;20190;-83
2021/08/08 04:15:57;;;;;;;3.00;1.20;;;;;;;;;;5093799;28;20178;-81
2021/08/08 04:18:23;;;;;;;1.37;1.20;;;;;;;;;;5093833;28;20237;-81
2021/08/08 04:20:50;;;;;;;1.33;1.20;;;;;;;;;;5092167;28;20267;-82
2021/08/08 04:23:17;;;;;;;4.57;1.07;;;;;;;;;;5091966;28;20209;-81
2021/08/08 04:25:44;;;;;;;3.40;1.00;;;;;;;;;;5093756;28;20241;-80
2021/08/08 04:28:10;;;;;;;2.03;0.70;;;;;;;;;;5093901;28;20214;-81
2021/08/08 04:30:37;;;;;;;2.87;1.00;;;;;;;;;;5093394;28;20217;-81
2021/08/08 04:33:06;;;;;;;1.53;0.90;;;;;;;;;;5091999;28;20229;-81
2021/08/08 04:35:33;;;;;;;1.00;1.00;;;;;;;;;;5091935;28;20209;-81
2021/08/08 04:38:00;;;;;;;0.83;0.83;;;;;;;;;;5092070;28;20609;-81
2021/08/08 04:40:28;;;;;;;3.80;1.03;;;;;;;;;;5091858;28;20271;-81
2021/08/08 04:42:54;;;;;;;1.60;0.90;;;;;;;;;;5093326;28;20240;-80
2021/08/08 04:45:21;;;;;;;0.90;0.90;;;;;;;;;;5093309;28;20595;-81
2021/08/08 04:47:48;;;;;;;2.57;1.13;;;;;;;;;;5093019;28;20209;-80
2021/08/08 04:50:16;;;;;;;2.07;0.97;;;;;;;;;;5091916;28;20245;-81
2021/08/08 04:52:45;;;;;;;2.57;1.13;;;;;;;;;;5091631;28;20205;-81
2021/08/08 04:55:12;;;;;;;1.37;1.27;;;;;;;;;;5093530;28;20241;-80
2021/08/08 04:57:39;;;;;;;2.63;1.27;;;;;;;;;;5093214;28;20241;-81
2021/08/08 05:00:08;;;;;;;1.53;0.97;;;;;;;;;;5092542;28;20240;-81
2021/08/08 05:02:36;;;;;;;2.27;0.90;;;;;;;;;;5125332;27;20278;-81
2021/08/08 05:05:03;;;;;;;1.50;1.00;;;;;;;;;;5093045;28;20213;-82
2021/08/08 05:07:31;;;;;;;1.93;0.90;;;;;;;;;;5091103;28;20194;-80
2021/08/08 05:09:58;;;;;;;1.60;0.90;;;;;;;;;;5091534;28;20682;-81
2021/08/08 05:12:24;;;;;;;1.00;0.87;;;;;;;;;;5092903;28;20650;-81
2021/08/08 05:14:51;;;;;;;2.90;1.00;;;;;;;;;;5091292;28;20245;-81
2021/08/08 05:17:17;;;;;;;2.80;1.10;;;;;;;;;;5091386;28;20215;-81
2021/08/08 05:19:44;;;;;;;3.00;1.00;;;;;;;;;;5091118;28;20201;-81
2021/08/08 05:22:11;;;;;;;1.10;1.00;;;;;;;;;;5092036;28;20291;-81
2021/08/08 05:24:39;;;;;;;2.27;1.10;;;;;;;;;;5090769;28;20194;-81
2021/08/08 05:27:05;;;;;;;0.97;0.90;;;;;;;;;;5090977;28;20190;-81
2021/08/08 05:29:32;;;;;;;1.40;1.10;;;;;;;;;;5091241;28;20723;-81
2021/08/08 05:31:59;;;;;;;6.23;0.90;;;;;;;;;;5090825;28;20194;-81
2021/08/08 05:34:25;;;;;;;3.13;0.90;;;;;;;;;;5091213;28;20562;-81
2021/08/08 05:36:52;;;;;;;1.00;0.90;;;;;;;;;;5090927;28;20243;-82
2021/08/08 05:39:19;;;;;;;2.30;1.10;;;;;;;;;;5091241;28;20178;-81
2021/08/08 05:41:47;;;;;;;1.93;0.90;;;;;;;;;;5090848;28;20193;-81
2021/08/08 05:44:13;;;;;;;2.33;1.30;;;;;;;;;;5092092;28;20214;-80
2021/08/08 05:46:40;;;;;;;1.23;0.80;;;;;;;;;;5092135;28;20732;-81
2021/08/08 05:49:08;;;;;;;2.83;1.30;;;;;;;;;;5092188;28;20688;-81
2021/08/08 05:51:35;;;;;;;0.93;0.93;;;;;;;;;;5090781;28;20626;-82
2021/08/08 05:54:02;;;;;;;2.50;1.40;;;;;;;;;;5092011;28;20255;-80
2021/08/08 05:56:29;;;;;;;1.17;1.07;;;;;;;;;;5090680;28;20221;-79
2021/08/08 05:58:57;;;;;;;2.50;1.27;;;;;;;;;;5092392;28;20364;-79
2021/08/08 06:01:23;;;;;;;3.00;1.37;;;;;;;;;;5091427;28;20210;-80
2021/08/08 06:03:50;;;;;;;1.67;1.03;;;;;;;;;;5090079;28;20206;-79
2021/08/08 06:06:17;;;;;;;4.33;1.50;;;;;;;;;;5092208;28;20686;-85
2021/08/08 06:08:43;;;;;;;2.00;1.50;;;;;;;;;;5090751;28;20241;-82
2021/08/08 06:11:11;;;;;;;1.20;1.10;;;;;;;;;;5090527;28;20706;-82
2021/08/08 06:13:37;;;;;;;3.33;1.40;;;;;;;;;;5090723;28;20235;-83
2021/08/08 06:16:06;;;;;;;2.03;1.10;;;;;;;;;;5090532;28;20190;-81
2021/08/08 06:18:32;;;;;;;1.10;1.10;;;;;;;;;;5092029;28;20202;-83
2021/08/08 06:20:59;;;;;;;1.20;1.10;;;;;;;;;;5095733;28;20350;-83
2021/08/08 06:23:26;;;;;;;2.03;1.17;;;;;;;;;;5095935;28;20650;-84
2021/08/08 06:25:52;;;;;;;2.33;1.20;;;;;;;;;;5093754;28;20561;-82
2021/08/08 06:28:19;;;;;;;3.03;1.43;;;;;;;;;;5094349;28;20225;-84
2021/08/08 06:30:46;;;;;;;3.40;1.23;;;;;;;;;;5094200;28;20241;-83
2021/08/08 06:33:16;;;;;;;5.27;1.17;;;;;;;;;;5095986;28;20201;-84
2021/08/08 06:35:43;;;;;;;1.83;1.40;;;;;;;;;;5094255;28;20247;-84
2021/08/08 06:38:10;;;;;;;1.37;1.17;;;;;;;;;;5095662;28;20634;-84
2021/08/08 06:40:36;;;;;;;3.30;1.37;;;;;;;;;;5094217;28;20221;-84
2021/08/08 06:43:04;;;;;;;2.00;1.47;;;;;;;;;;5094156;28;20584;-83
2021/08/08 06:45:31;;;;;;;2.70;1.53;;;;;;;;;;5094253;28;20739;-83
2021/08/08 06:47:59;;;;;;;2.20;1.10;;;;;;;;;;5095334;28;20208;-83
2021/08/08 06:50:27;;;;;;;3.90;1.30;;;;;;;;;;5095319;28;20245;-83
2021/08/08 06:52:54;;;;;;;1.23;1.13;;;;;;;;;;5095301;28;20225;-83
2021/08/08 06:55:21;;;;;;;2.83;1.40;;;;;;;;;;5094023;28;20229;-82
2021/08/08 06:57:48;;;;;;;5.23;1.70;;;;;;;;;;5094216;28;20225;-82
2021/08/08 07:00:15;;;;;;;2.43;1.17;;;;;;;;;;5095221;28;20237;-83
2021/08/08 07:02:42;;;;;;;1.40;1.30;;;;;;;;;;5093524;28;20589;-87
2021/08/08 07:05:09;;;;;;;2.73;1.47;;;;;;;;;;5087419;28;20256;-83
2021/08/08 07:07:37;;;;;;;2.33;1.63;;;;;;;;;;5075063;28;20838;-84
2021/08/08 07:10:04;;;;;;;2.73;1.33;;;;;;;;;;5083473;28;20275;-84
2021/08/08 07:12:31;;;;;;;2.77;1.40;;;;;;;;;;5094915;28;20604;-85
2021/08/08 07:14:57;;;;;;;2.43;1.40;;;;;;;;;;5094307;28;20216;-87
2021/08/08 07:17:24;;;;;;;1.73;1.20;;;;;;;;;;5093580;28;20338;-83
2021/08/08 07:19:51;;;;;;;2.27;1.30;;;;;;;;;;5093022;28;20236;-83
2021/08/08 07:22:17;;;;;;;4.27;1.57;;;;;;;;;;5094542;28;20245;-83
2021/08/08 07:24:51;;;;;;;3.20;1.70;;;;;;;;;;5094775;28;20208;-82
2021/08/08 07:27:18;;;;;;;2.43;1.33;;;;;;;;;;5094877;28;20248;-84
2021/08/08 07:29:44;;;;;;;6.43;1.33;;;;;;;;;;5093838;28;20226;-84
2021/08/08 07:32:11;;;;;;;3.23;1.47;;;;;;;;;;5094221;28;20210;-82
2021/08/08 07:34:37;;;;;;;1.30;1.20;;;;;;;;;;5094350;28;20233;-83
2021/08/08 07:37:04;;;;;;;2.57;1.10;;;;;;;;;;5092595;28;20197;-83
2021/08/08 07:39:32;;;;;;;5.50;1.43;;;;;;;;;;5092921;28;20654;-81
2021/08/08 07:42:00;;;;;;;3.43;1.53;;;;;;;;;;5092847;28;20209;-83
2021/08/08 07:44:27;;;;;;;2.53;1.20;;;;;;;;;;5092681;28;20201;-84
2021/08/08 07:46:53;;;;;;;2.57;1.37;;;;;;;;;;5092989;28;20228;-83
2021/08/08 07:49:20;;;;;;;4.17;1.53;;;;;;;;;;5088450;28;20221;-83
2021/08/08 07:51:47;;;;;;;2.73;1.37;;;;;;;;;;5093613;28;20257;-83
2021/08/08 07:54:13;;;;;;;1.33;1.00;;;;;;;;;;5094435;28;20213;-82
2021/08/08 07:56:40;;;;;;;1.60;1.30;;;;;;;;;;5092707;28;20248;-82
2021/08/08 07:59:08;;;;;;;4.73;1.20;;;;;;;;;;5092556;28;20201;-80
2021/08/08 08:01:35;;;;;;;4.53;1.50;;;;;;;;;;5093605;28;20220;-82
2021/08/08 08:04:04;;;;;;;2.70;1.20;;;;;;;;;;5093585;28;20213;-81
2021/08/08 08:06:32;;;;;;;2.20;1.33;;;;;;;;;;5093692;28;20233;-80
2021/08/08 08:08:59;;;;;;;3.13;1.50;;;;;;;;;;5092612;28;20182;-81
2021/08/08 08:11:25;;;;;;;3.53;1.30;;;;;;;;;;5092630;28;20570;-82
2021/08/08 08:13:53;;;;;;;3.37;1.53;;;;;;;;;;5092557;28;20221;-81
2021/08/08 08:16:21;;;;;;;3.47;1.40;;;;;;;;;;5093775;28;20214;-82
2021/08/08 08:18:47;;;;;;;3.23;1.40;;;;;;;;;;5092692;28;20190;-81
2021/08/08 08:21:14;;;;;;;2.97;1.50;;;;;;;;;;5093596;28;20228;-81
2021/08/08 08:23:41;;;;;;;3.77;1.30;;;;;;;;;;5086546;28;20227;-81
2021/08/08 08:26:08;;;;;;;3.70;1.33;;;;;;;;;;5092486;28;20575;-81
2021/08/08 08:28:34;;;;;;;3.17;1.20;;;;;;;;;;5092753;28;20649;-81
2021/08/08 08:31:02;;;;;;;4.17;1.47;;;;;;;;;;5092257;28;20219;-81
2021/08/08 08:33:30;;;;;;;6.80;1.60;;;;;;;;;;5091983;28;20554;-81
2021/08/08 08:35:57;;;;;;;2.93;1.20;;;;;;;;;;5092089;28;20300;-81
2021/08/08 08:38:24;;;;;;;3.37;1.30;;;;;;;;;;5092026;28;20212;-82
2021/08/08 08:40:50;;;;;;;3.97;1.20;;;;;;;;;;5091082;28;20596;-81
2021/08/08 08:43:17;;;;;;;2.30;1.30;;;;;;;;;;5090699;28;20845;-81
2021/08/08 08:45:45;;;;;;;4.30;1.30;;;;;;;;;;5091615;28;20197;-81
2021/08/08 08:48:12;;;;;;;3.43;1.60;;;;;;;;;;5091888;28;20236;-80
2021/08/08 08:50:42;;;;;;;3.83;1.50;;;;;;;;;;5091673;28;20221;-83
2021/08/08 08:53:09;;;;;;;1.83;1.40;;;;;;;;;;5091473;28;20245;-81
2021/08/08 08:55:36;;;;;;;3.30;1.37;;;;;;;;;;5092101;28;20190;-81
2021/08/08 08:58:03;;;;;;;3.25;1.50;;;;;;;;;;5093358;28;20719;-80
2021/08/08 09:00:30;;;;;;;3.80;1.87;;;;;;;;;;5091299;28;20565;-81
2021/08/08 09:02:57;;;;;;;3.27;1.53;;;;;;;;;;5091534;28;20230;-82
2021/08/08 09:05:23;;;;;;;3.43;1.40;;;;;;;;;;5090895;28;20536;-82
2021/08/08 09:07:51;;;;;;;5.97;1.50;;;;;;;;;;5092588;28;20229;-83
2021/08/08 09:10:21;;;;;;;1.30;1.20;;;;;;;;;;5091317;28;20206;-81
2021/08/08 09:12:56;;;;;;;4.27;1.60;;;;;;;;;;5091149;28;20237;-79
2021/08/08 09:15:31;;;;;;;1.30;1.20;;;;;;;;;;5091538;28;20660;-80
2021/08/08 09:17:58;;;;;;;2.77;1.43;;;;;;;;;;5091596;28;20223;-80
2021/08/08 09:20:31;;;;;;;3.13;1.30;;;;;;;;;;5091828;28;20233;-79
2021/08/08 09:22:59;;;;;;;2.10;1.63;;;;;;;;;;5092553;28;20293;-81
2021/08/08 09:25:26;;;;;;;3.73;1.33;;;;;;;;;;5091267;28;20217;-81
2021/08/08 09:27:53;;;;;;;1.33;1.10;;;;;;;;;;5090745;28;20730;-79
2021/08/08 09:30:20;;;;;;;4.80;1.80;;;;;;;;;;5082881;28;20220;-79
2021/08/08 09:32:47;;;;;;;1.77;1.20;;;;;;;;;;5085369;28;20240;-81
2021/08/08 09:35:19;;;;;;;6.20;1.90;;;;;;;;;;5092162;28;20210;-80
2021/08/08 09:37:59;;;;;;;2.93;1.40;;;;;;;;;;5091329;28;20669;-80
2021/08/08 09:40:28;;;;;;;5.70;1.40;;;;;;;;;;5090428;28;20227;-80
2021/08/08 09:42:54;;;;;;;2.83;1.30;;;;;;;;;;5082222;28;20191;-80
2021/08/08 09:45:34;;;;;;;3.13;1.27;;;;;;;;;;5070525;28;20662;-80
2021/08/08 09:48:02;;;;;;;3.73;1.50;;;;;;;;;;5079389;28;20202;-80
2021/08/08 09:50:30;;;;;;;3.37;1.37;;;;;;;;;;5090652;28;20263;-79
2021/08/08 09:52:58;;;;;;;3.57;1.53;;;;;;;;;;5088679;28;20301;-82
2021/08/08 09:55:31;;;;;;;2.97;1.40;;;;;;;;;;5072222;28;20202;-81
2021/08/08 09:58:00;;;;;;;2.57;1.40;;;;;;;;;;5077097;28;20213;-79
2021/08/08 10:00:28;;;;;;;2.03;1.40;;;;;;;;;;5092376;28;20185;-82
2021/08/08 10:02:56;;;;;;;2.47;1.47;;;;;;;;;;5090521;28;20222;-80
2021/08/08 10:05:26;;;;;;;3.70;1.20;;;;;;;;;;5090939;28;20671;-80
2021/08/08 10:07:57;;;;;;;2.60;1.30;;;;;;;;;;5090793;28;20243;-81
2021/08/08 10:10:24;;;;;;;3.50;1.35;;;;;;;;;;5092248;28;20178;-80
2021/08/08 10:13:01;;;;;;;3.47;1.20;;;;;;;;;;5090761;28;20257;-79
2021/08/08 10:15:28;;;;;;;2.33;1.30;;;;;;;;;;5091978;28;20170;-80
2021/08/08 10:17:56;;;;;;;2.97;1.20;;;;;;;;;;5084393;28;20269;-80
2021/08/08 10:20:23;;;;;;;3.80;1.23;;;;;;;;;;5070483;28;20233;-80
2021/08/08 10:22:52;;;;;;;1.77;1.17;;;;;;;;;;5070221;28;20214;-80
2021/08/08 10:25:22;;;;;;;2.87;1.23;;;;;;;;;;5070651;28;20199;-81
2021/08/08 10:27:49;;;;;;;4.68;1.92;;;;;;;;;;5070127;28;20553;-81
2021/08/08 10:30:17;;;;;;;2.38;1.60;;;;;;;;;;5070684;28;20240;-82
2021/08/08 10:32:44;;;;;;;2.23;1.30;;;;;;;;;;5071909;28;20223;-79
2021/08/08 10:35:12;;;;;;;3.50;1.30;;;;;;;;;;5070454;28;20199;-80
2021/08/08 10:37:39;;;;;;;1.70;1.55;;;;;;;;;;5071864;28;20238;-81
2021/08/08 10:40:08;;;;;;;2.47;1.35;;;;;;;;;;5071808;28;20272;-80
2021/08/08 10:42:41;;;;;;;4.78;1.52;;;;;;;;;;5072540;28;20210;-80
2021/08/08 10:45:08;;;;;;;3.10;1.38;;;;;;;;;;5070065;28;20563;-80
2021/08/08 10:47:36;;;;;;;2.35;1.10;;;;;;;;;;5072200;28;20222;-81
2021/08/08 10:50:09;;;;;;;3.55;1.40;;;;;;;;;;5090813;28;20283;-79
2021/08/08 10:52:40;;;;;;;3.05;1.05;;;;;;;;;;5090304;28;20295;-80
2021/08/08 10:55:08;;;;;;;3.95;1.38;;;;;;;;;;5092207;28;20677;-80
2021/08/08 10:57:42;;;;;;;5.82;1.30;;;;;;;;;;5086152;28;20241;-79
2021/08/08 11:00:13;;;;;;;5.57;1.40;;;;;;;;;;5091885;28;20252;-79
2021/08/08 11:02:44;;;;;;;3.03;1.20;;;;;;;;;;5089084;28;20674;-81
2021/08/08 11:05:11;;;;;;;2.10;1.65;;;;;;;;;;5091163;28;20521;-80
2021/08/08 11:07:40;;;;;;;2.30;1.10;;;;;;;;;;5093727;28;20295;-79
2021/08/08 11:10:07;;;;;;;2.47;1.38;;;;;;;;;;5095284;28;20228;-82
2021/08/08 11:12:36;;;;;;;1.95;1.10;;;;;;;;;;5093945;28;20697;-81
2021/08/08 11:15:04;;;;;;;2.60;1.30;;;;;;;;;;5077022;28;20221;-81
2021/08/08 11:17:31;;;;;;;1.95;1.20;;;;;;;;;;5073419;28;20221;-80
2021/08/08 11:20:03;;;;;;;3.67;1.30;;;;;;;;;;5073391;28;20662;-82
2021/08/08 11:22:30;;;;;;;2.60;1.30;;;;;;;;;;5072749;28;20234;-80
2021/08/08 11:24:58;;;;;;;2.17;1.30;;;;;;;;;;5073406;28;20203;-80
2021/08/08 11:27:32;;;;;;;3.47;1.65;;;;;;;;;;5073733;28;20194;-83
2021/08/08 11:30:00;;;;;;;3.58;1.40;;;;;;;;;;5074097;28;20238;-81
2021/08/08 11:32:28;;;;;;;2.58;1.45;;;;;;;;;;5072494;28;20257;-82
2021/08/08 11:35:05;;;;;;;4.43;1.70;;;;;;;;;;5072874;28;20186;-79
2021/08/08 11:37:34;;;;;;;6.53;1.40;;;;;;;;;;5072621;28;20681;-78
2021/08/08 11:40:00;;;;;;;3.53;1.65;;;;;;;;;;5073020;28;20565;-83
2021/08/08 11:42:31;;;;;;;1.67;1.38;;;;;;;;;;5082901;28;20248;-80
2021/08/08 11:44:58;;;;;;;4.88;1.38;;;;;;;;;;5092691;28;20214;-77
2021/08/08 11:47:26;;;;;;;5.85;1.77;;;;;;;;;;5092669;28;20194;-81
2021/08/08 11:49:53;;;;;;;3.08;1.60;;;;;;;;;;5084621;28;20219;-79
2021/08/08 11:52:22;;;;;;;5.05;1.45;;;;;;;;;;5084388;28;20241;-80
2021/08/08 11:54:59;;;;;;;3.03;1.73;;;;;;;;;;5093740;28;20221;-79
2021/08/08 11:57:27;;;;;;;4.50;1.33;;;;;;;;;;5083175;28;20747;-79
2021/08/08 11:59:54;;;;;;;5.03;1.58;;;;;;;;;;5072961;28;20222;-80
2021/08/08 12:02:20;;;;;;;3.08;1.15;;;;;;;;;;5083353;28;21138;-80
2021/08/08 12:04:50;;;;;;;4.40;1.90;;;;;;;;;;5093256;28;20229;-80
2021/08/08 12:07:17;;;;;;;1.85;1.38;;;;;;;;;;5092727;28;20229;-79
2021/08/08 12:09:49;;;;;;;3.78;1.40;;;;;;;;;;5091446;28;20206;-80
2021/08/08 12:12:16;;;;;;;2.00;1.40;;;;;;;;;;5078453;28;20282;-80
2021/08/08 12:14:45;;;;;;;2.60;1.50;;;;;;;;;;5071390;28;20241;-80
2021/08/08 12:17:13;;;;;;;4.45;1.27;;;;;;;;;;5120134;27;20600;-80
2021/08/08 12:19:40;;;;;;;3.10;1.65;;;;;;;;;;5091955;28;20232;-81
2021/08/08 12:22:09;;;;;;;1.75;1.15;;;;;;;;;;5092083;28;20281;-83
2021/08/08 12:24:39;;;;;;;3.08;1.40;;;;;;;;;;5092198;28;20247;-83
2021/08/08 12:27:07;;;;;;;1.50;1.30;;;;;;;;;;5091818;28;20274;-84
2021/08/08 12:29:35;;;;;;;1.83;1.33;;;;;;;;;;5093264;28;20245;-85
2021/08/08 12:32:05;;;;;;;2.67;1.20;;;;;;;;;;5091929;28;20198;-80
2021/08/08 12:34:35;;;;;;;5.50;1.40;;;;;;;;;;5092899;28;20760;-80
2021/08/08 12:37:03;;;;;;;2.53;1.40;;;;;;;;;;5091361;28;20282;-80
2021/08/08 12:39:29;;;;;;;4.43;1.42;;;;;;;;;;5091850;28;20211;-79
2021/08/08 12:41:56;;;;;;;2.00;1.30;;;;;;;;;;5092814;28;20240;-81
2021/08/08 12:44:32;;;;;;;3.22;1.33;;;;;;;;;;5092703;28;20233;-80
2021/08/08 12:47:00;;;;;;;3.10;1.85;;;;;;;;;;5092367;28;20247;-81
2021/08/08 12:49:32;;;;;;;3.95;1.30;;;;;;;;;;5091192;28;20202;-80
2021/08/08 12:51:59;;;;;;;1.13;0.95;;;;;;;;;;5092768;28;20201;-81
2021/08/08 12:54:25;;;;;;;3.60;1.55;;;;;;;;;;5092511;28;20240;-80
2021/08/08 12:56:52;;;;;;;4.85;1.48;;;;;;;;;;5091438;28;20738;-81
2021/08/08 12:59:19;;;;;;;4.45;1.40;;;;;;;;;;5092680;28;20685;-81
2021/08/08 13:01:47;;;;;;;4.30;1.40;;;;;;;;;;5092434;28;20265;-81
2021/08/08 13:04:14;;;;;;;3.42;1.20;;;;;;;;;;5092099;28;20241;-81
2021/08/08 13:06:40;;;;;;;3.60;1.50;;;;;;;;;;5090947;28;20201;-81
2021/08/08 13:09:07;;;;;;;1.50;1.40;;;;;;;;;;5090544;28;20202;-78
2021/08/08 13:11:34;;;;;;;2.33;1.45;;;;;;;;;;5092443;28;20206;-78
2021/08/08 13:14:00;;;;;;;3.05;1.52;;;;;;;;;;5090620;28;20245;-77
2021/08/08 13:16:27;;;;;;;3.83;1.40;;;;;;;;;;5090988;28;20223;-79
2021/08/08 13:18:55;;;;;;;1.45;1.10;;;;;;;;;;5090751;28;20619;-78
2021/08/08 13:21:22;;;;;;;2.92;1.38;;;;;;;;;;5092612;28;20178;-79
2021/08/08 13:23:49;;;;;;;1.88;1.25;;;;;;;;;;5092011;28;20524;-78
2021/08/08 13:26:15;;;;;;;3.58;1.38;;;;;;;;;;5092319;28;20216;-79
2021/08/08 13:28:45;;;;;;;3.72;1.10;;;;;;;;;;5091373;28;20639;-78
2021/08/08 13:31:12;;;;;;;3.17;1.13;;;;;;;;;;5091049;28;20657;-80
2021/08/08 13:33:39;;;;;;;1.98;1.23;;;;;;;;;;5089879;28;20298;-78
2021/08/08 13:36:08;;;;;;;2.45;1.45;;;;;;;;;;5090478;28;20298;-79
2021/08/08 13:38:35;;;;;;;3.45;2.03;;;;;;;;;;5090560;28;20227;-79
2021/08/08 13:41:04;;;;;;;2.47;1.33;;;;;;;;;;5091885;28;20263;-80
2021/08/08 13:43:31;;;;;;;1.90;1.30;;;;;;;;;;5090460;28;20558;-80
2021/08/08 13:45:57;;;;;;;2.15;1.33;;;;;;;;;;5090408;28;20653;-80
2021/08/08 13:48:24;;;;;;;4.32;1.25;;;;;;;;;;5090814;28;20537;-80
2021/08/08 13:50:51;;;;;;;1.70;1.30;;;;;;;;;;5091573;28;20260;-80
2021/08/08 13:53:19;;;;;;;3.67;1.33;;;;;;;;;;5091271;28;20735;-80
2021/08/08 13:55:45;;;;;;;4.20;1.65;;;;;;;;;;5091851;28;20249;-81
2021/08/08 13:58:12;;;;;;;2.42;1.10;;;;;;;;;;5089656;28;20202;-80
2021/08/08 14:00:40;;;;;;;4.10;1.38;;;;;;;;;;5090159;28;20251;-80
2021/08/08 14:03:07;;;;;;;3.78;1.42;;;;;;;;;;5089791;28;20226;-80
2021/08/08 14:05:34;;;;;;;2.75;1.40;;;;;;;;;;5091476;28;20202;-79
2021/08/08 14:08:01;;;;;;;3.78;1.40;;;;;;;;;;5090939;28;20697;-80
2021/08/08 14:10:29;;;;;;;3.97;1.40;;;;;;;;;;5091384;28;20244;-80
2021/08/08 14:12:55;;;;;;;3.47;1.33;;;;;;;;;;5091500;28;20569;-80
2021/08/08 14:15:22;;;;;;;2.17;1.40;;;;;;;;;;5089920;28;20245;-80
2021/08/08 14:17:48;;;;;;;2.47;1.02;;;;;;;;;;5090188;28;20243;-80
2021/08/08 14:20:15;;;;;;;2.70;1.30;;;;;;;;;;5091709;28;20237;-80
2021/08/08 14:22:42;;;;;;;1.27;1.17;;;;;;;;;;5090189;28;20221;-79
2021/08/08 14:25:09;;;;;;;1.73;1.40;;;;;;;;;;5090207;28;20194;-77
2021/08/08 14:27:37;;;;;;;2.60;1.23;;;;;;;;;;5091558;28;20206;-78
2021/08/08 14:30:04;;;;;;;5.90;1.40;;;;;;;;;;5073363;28;20238;-78
2021/08/08 14:32:32;;;;;;;1.38;1.27;;;;;;;;;;5071580;28;20203;-79
2021/08/08 14:34:59;;;;;;;2.38;1.23;;;;;;;;;;5071677;28;20237;-79
2021/08/08 14:37:27;;;;;;;1.23;1.10;;;;;;;;;;5070672;28;20248;-79
2021/08/08 14:39:53;;;;;;;1.63;1.23;;;;;;;;;;5074236;28;20206;-79
2021/08/08 14:42:20;;;;;;;1.70;1.27;;;;;;;;;;5074798;28;20191;-79
2021/08/08 14:44:49;;;;;;;1.90;1.23;;;;;;;;;;5074365;28;20229;-80